createdAt,value
2019-03-03T00:01:09.896Z,100837.23
2019-03-03T00:02:14.965Z,100837.71
2019-03-03T00:03:19.988Z,100842.31
2019-03-03T00:04:25.032Z,100839.29
2019-03-03T00:05:30.082Z,100843.27
2019-03-03T00:06:35.286Z,100837.25
2019-03-03T00:07:40.541Z,100846.87
2019-03-03T00:08:45.752Z,100843.89
2019-03-03T00:09:51.300Z,100840.76
2019-03-03T00:10:56.263Z,100838.58
2019-03-03T00:12:01.390Z,100837.73
2019-03-03T00:13:06.773Z,100839.54
2019-03-03T00:14:11.782Z,100832.91
2019-03-03T00:15:16.795Z,100835.66
2019-03-03T00:16:22.232Z,100839.54
2019-03-03T00:17:27.255Z,100840.50
2019-03-03T00:18:32.514Z,100840.50
2019-03-03T00:19:37.511Z,100843.41
2019-03-03T00:20:42.812Z,100835.92
2019-03-03T00:21:47.874Z,100841.23
2019-03-03T00:22:52.931Z,100834.94
2019-03-03T00:23:57.852Z,100833.61
2019-03-03T00:25:02.923Z,100826.97
2019-03-03T00:26:08.248Z,100829.63
2019-03-03T00:27:13.551Z,100824.31
2019-03-03T00:28:18.488Z,100824.31
2019-03-03T00:29:23.414Z,100827.34
2019-03-03T00:30:28.496Z,100827.34
2019-03-03T00:31:38.713Z,100828.67
2019-03-03T00:32:43.689Z,100824.69
2019-03-03T00:33:48.886Z,100831.33
2019-03-03T00:34:53.944Z,100831.33
2019-03-03T00:35:59.022Z,100829.15
2019-03-03T00:37:26.029Z,100827.71
2019-03-03T00:38:42.525Z,100827.71
2019-03-03T00:40:05.182Z,100826.02
2019-03-03T00:41:38.433Z,100832.17
2019-03-03T00:42:54.594Z,100826.97
2019-03-03T00:44:27.633Z,100827.96
2019-03-03T00:45:57.978Z,100832.91
2019-03-03T00:47:21.617Z,100821.06
2019-03-03T00:48:48.639Z,100825.89
2019-03-03T00:49:59.174Z,100819.41
2019-03-03T00:51:10.147Z,100817.22
2019-03-03T00:52:21.311Z,100815.53
2019-03-03T00:53:36.747Z,100819.87
2019-03-03T00:54:56.364Z,100815.90
2019-03-03T00:56:16.303Z,100816.37
2019-03-03T00:57:46.384Z,100815.05
2019-03-03T00:59:01.754Z,100813.35
2019-03-03T01:00:17.889Z,100815.90
2019-03-03T01:01:59.736Z,100815.42
2019-03-03T01:03:13.310Z,100814.31
2019-03-03T01:04:27.510Z,100814.31
2019-03-03T01:05:42.723Z,100806.11
2019-03-03T01:07:06.051Z,100812.02
2019-03-03T01:08:41.976Z,100810.95
2019-03-03T01:10:06.028Z,100801.31
2019-03-03T01:11:27.278Z,100803.09
2019-03-03T01:12:40.865Z,100802.84
2019-03-03T01:14:00.627Z,100802.22
2019-03-03T01:15:34.781Z,100803.81
2019-03-03T01:16:47.192Z,100797.39
2019-03-03T01:18:08.977Z,100802.93
2019-03-03T01:19:38.936Z,100799.17
2019-03-03T01:21:08.844Z,100796.63
2019-03-03T01:22:27.149Z,100799.03
2019-03-03T01:23:48.721Z,100805.41
2019-03-03T01:24:57.578Z,100792.87
2019-03-03T01:26:02.785Z,100803.34
2019-03-03T01:27:07.799Z,100807.56
2019-03-03T01:28:12.919Z,100799.11
2019-03-03T01:29:18.070Z,100799.95
2019-03-03T01:30:23.112Z,100804.31
2019-03-03T01:31:28.059Z,100801.03
2019-03-03T01:32:33.270Z,100796.56
2019-03-03T01:33:38.213Z,100790.28
2019-03-03T01:34:43.239Z,100792.47
2019-03-03T01:35:48.168Z,100787.85
2019-03-03T01:36:53.408Z,100786.37
2019-03-03T01:37:58.446Z,100785.42
2019-03-03T01:39:04.911Z,100783.98
2019-03-03T01:40:10.083Z,100788.66
2019-03-03T01:41:15.217Z,100781.91
2019-03-03T01:42:20.193Z,100783.09
2019-03-03T01:43:25.259Z,100778.63
2019-03-03T01:44:30.351Z,100780.80
2019-03-03T01:45:35.468Z,100778.51
2019-03-03T01:46:40.595Z,100779.84
2019-03-03T01:47:45.630Z,100783.83
2019-03-03T01:48:51.183Z,100784.42
2019-03-03T01:49:56.186Z,100779.10
2019-03-03T01:51:01.247Z,100779.95
2019-03-03T01:52:06.331Z,100781.28
2019-03-03T01:53:11.368Z,100779.10
2019-03-03T01:54:16.393Z,100777.41
2019-03-03T01:55:21.702Z,100777.41
2019-03-03T01:56:26.880Z,100770.77
2019-03-03T01:57:31.823Z,100773.09
2019-03-03T01:58:36.850Z,100765.12
2019-03-03T01:59:42.050Z,100762.46
2019-03-03T02:00:47.301Z,100757.99
2019-03-03T02:01:52.382Z,100751.83
2019-03-03T02:02:58.154Z,100757.00
2019-03-03T02:04:03.256Z,100745.19
2019-03-03T02:05:08.264Z,100748.33
2019-03-03T02:06:13.346Z,100742.53
2019-03-03T02:07:18.343Z,100740.84
2019-03-03T02:08:23.292Z,100743.27
2019-03-03T02:09:28.307Z,100733.61
2019-03-03T02:10:33.603Z,100736.27
2019-03-03T02:11:38.818Z,100735.08
2019-03-03T02:12:44.142Z,100724.45
2019-03-03T02:13:49.183Z,100728.44
2019-03-03T02:14:54.226Z,100729.77
2019-03-03T02:15:59.654Z,100725.78
2019-03-03T02:17:05.589Z,100717.81
2019-03-03T02:18:10.922Z,100715.16
2019-03-03T02:19:15.931Z,100708.52
2019-03-03T02:20:21.106Z,100708.00
2019-03-03T02:21:26.208Z,100699.22
2019-03-03T02:22:31.470Z,100699.55
2019-03-03T02:23:36.502Z,100690.25
2019-03-03T02:24:41.924Z,100691.58
2019-03-03T02:25:47.031Z,100696.41
2019-03-03T02:26:52.189Z,100694.60
2019-03-03T02:27:57.362Z,100696.05
2019-03-03T02:29:02.271Z,100698.59
2019-03-03T02:30:11.412Z,100698.59
2019-03-03T02:31:16.437Z,100701.61
2019-03-03T02:32:21.820Z,100695.45
2019-03-03T02:33:26.720Z,100697.63
2019-03-03T02:34:31.764Z,100697.63
2019-03-03T02:35:36.714Z,100699.91
2019-03-03T02:36:41.705Z,100694.60
2019-03-03T02:37:47.194Z,100695.94
2019-03-03T02:38:52.175Z,100702.94
2019-03-03T02:39:57.169Z,100702.94
2019-03-03T02:41:02.232Z,100705.59
2019-03-03T02:42:07.771Z,100702.94
2019-03-03T02:43:12.808Z,100697.26
2019-03-03T02:44:18.043Z,100695.81
2019-03-03T02:45:23.288Z,100697.00
2019-03-03T02:46:28.234Z,100691.69
2019-03-03T02:47:33.242Z,100685.04
2019-03-03T02:48:38.225Z,100685.89
2019-03-03T02:49:43.749Z,100679.25
2019-03-03T02:50:48.901Z,100684.08
2019-03-03T02:51:53.903Z,100680.42
2019-03-03T02:52:58.972Z,100677.77
2019-03-03T02:54:04.210Z,100685.26
2019-03-03T02:55:10.875Z,100684.78
2019-03-03T02:56:15.888Z,100690.09
2019-03-03T02:57:20.855Z,100683.45
2019-03-03T02:58:25.924Z,100676.44
2019-03-03T02:59:30.866Z,100672.82
2019-03-03T03:00:38.037Z,100670.16
2019-03-03T03:01:55.711Z,100666.55
2019-03-03T03:03:01.838Z,100664.25
2019-03-03T03:04:06.932Z,100665.58
2019-03-03T03:05:12.497Z,100659.90
2019-03-03T03:06:42.301Z,100666.91
2019-03-03T03:08:08.223Z,100656.28
2019-03-03T03:09:22.641Z,100658.42
2019-03-03T03:10:45.081Z,100653.63
2019-03-03T03:12:07.942Z,100658.94
2019-03-03T03:13:31.903Z,100663.03
2019-03-03T03:14:45.432Z,100655.18
2019-03-03T03:15:58.725Z,100651.34
2019-03-03T03:17:13.908Z,100649.17
2019-03-03T03:18:29.033Z,100656.78
2019-03-03T03:19:41.607Z,100653.30
2019-03-03T03:21:04.280Z,100654.75
2019-03-03T03:22:16.285Z,100649.44
2019-03-03T03:23:30.475Z,100652.46
2019-03-03T03:24:53.042Z,100643.76
2019-03-03T03:26:10.530Z,100645.09
2019-03-03T03:27:36.488Z,100642.43
2019-03-03T03:28:50.837Z,100649.55
2019-03-03T03:30:12.968Z,100652.46
2019-03-03T03:31:26.375Z,100653.42
2019-03-03T03:32:36.304Z,100649.80
2019-03-03T03:33:54.983Z,100645.81
2019-03-03T03:35:31.113Z,100648.80
2019-03-03T03:36:42.718Z,100642.16
2019-03-03T03:37:57.664Z,100637.36
2019-03-03T03:39:20.131Z,100637.84
2019-03-03T03:40:42.770Z,100633.02
2019-03-03T03:42:15.757Z,100635.78
2019-03-03T03:43:38.452Z,100629.14
2019-03-03T03:44:51.510Z,100626.48
2019-03-03T03:46:16.893Z,100632.53
2019-03-03T03:47:43.842Z,100628.55
2019-03-03T03:49:06.310Z,100629.73
2019-03-03T03:50:20.673Z,100624.41
2019-03-03T03:51:36.611Z,100625.26
2019-03-03T03:53:06.637Z,100635.25
2019-03-03T03:54:20.649Z,100622.81
2019-03-03T03:55:53.567Z,100636.95
2019-03-03T03:57:12.095Z,100630.30
2019-03-03T03:58:42.200Z,100623.30
2019-03-03T04:00:12.520Z,100619.31
2019-03-03T04:01:45.607Z,100621.16
2019-03-03T04:03:22.205Z,100618.13
2019-03-03T04:04:44.147Z,100619.58
2019-03-03T04:06:14.368Z,100619.84
2019-03-03T04:07:37.209Z,100624.47
2019-03-03T04:08:55.660Z,100621.44
2019-03-03T04:10:19.590Z,100619.78
2019-03-03T04:11:39.605Z,100613.95
2019-03-03T04:13:03.567Z,100617.24
2019-03-03T04:14:27.871Z,100609.39
2019-03-03T04:16:00.659Z,100611.72
2019-03-03T04:17:23.411Z,100608.58
2019-03-03T04:18:37.754Z,100608.06
2019-03-03T04:20:07.878Z,100602.75
2019-03-03T04:21:22.075Z,100613.26
2019-03-03T04:22:46.087Z,100608.79
2019-03-03T04:24:12.860Z,100603.48
2019-03-03T04:25:35.326Z,100604.08
2019-03-03T04:26:50.405Z,100596.95
2019-03-03T04:28:26.685Z,100595.30
2019-03-03T04:29:36.320Z,100597.44
2019-03-03T04:30:58.789Z,100589.13
2019-03-03T04:32:08.565Z,100591.52
2019-03-03T04:33:44.682Z,100596.20
2019-03-03T04:35:02.221Z,100590.77
2019-03-03T04:36:26.471Z,100591.62
2019-03-03T04:37:47.698Z,100586.64
2019-03-03T04:39:11.873Z,100596.19
2019-03-03T04:40:29.149Z,100591.08
2019-03-03T04:41:48.387Z,100596.13
2019-03-03T04:43:05.355Z,100596.13
2019-03-03T04:44:28.143Z,100588.64
2019-03-03T04:45:55.177Z,100589.13
2019-03-03T04:47:18.117Z,100581.15
2019-03-03T04:48:37.137Z,100587.09
2019-03-03T04:50:07.174Z,100581.78
2019-03-03T04:51:29.677Z,100581.78
2019-03-03T04:52:43.426Z,100574.14
2019-03-03T04:53:58.867Z,100581.62
2019-03-03T04:55:26.135Z,100574.87
2019-03-03T04:56:50.115Z,100575.72
2019-03-03T04:58:03.186Z,100567.95
2019-03-03T04:59:18.629Z,100564.66
2019-03-03T05:00:54.618Z,100563.70
2019-03-03T05:02:30.787Z,100560.68
2019-03-03T05:04:00.797Z,100552.59
2019-03-03T05:05:13.337Z,100550.78
2019-03-03T05:06:23.665Z,100555.61
2019-03-03T05:07:39.235Z,100557.75
2019-03-03T05:08:49.548Z,100560.77
2019-03-03T05:10:13.160Z,100551.83
2019-03-03T05:12:28.775Z,100558.33
2019-03-03T05:13:52.821Z,100552.05
2019-03-03T05:15:02.938Z,100553.25
2019-03-03T05:16:27.183Z,100547.94
2019-03-03T05:17:46.569Z,100548.63
2019-03-03T05:19:04.113Z,100550.80
2019-03-03T05:20:09.626Z,100549.47
2019-03-03T05:21:14.558Z,100551.65
2019-03-03T05:22:19.561Z,100542.34
2019-03-03T05:23:24.606Z,100545.81
2019-03-03T05:24:34.255Z,100547.02
2019-03-03T05:25:36.336Z,100549.56
2019-03-03T05:26:41.292Z,100546.39
2019-03-03T05:27:46.232Z,100546.06
2019-03-03T05:28:51.251Z,100548.84
2019-03-03T05:29:56.285Z,100553.19
2019-03-03T05:31:01.226Z,100547.39
2019-03-03T05:32:06.309Z,100551.70
2019-03-03T05:33:11.506Z,100549.89
2019-03-03T05:34:16.431Z,100548.08
2019-03-03T05:35:21.311Z,100544.09
2019-03-03T05:36:26.558Z,100549.05
2019-03-03T05:37:31.913Z,100539.41
2019-03-03T05:38:36.970Z,100535.42
2019-03-03T05:39:41.933Z,100531.77
2019-03-03T05:40:46.988Z,100531.65
2019-03-03T05:41:52.001Z,100532.98
2019-03-03T05:42:56.982Z,100531.49
2019-03-03T05:44:02.032Z,100526.91
2019-03-03T05:45:07.466Z,100523.76
2019-03-03T05:46:12.999Z,100529.41
2019-03-03T05:47:18.002Z,100522.64
2019-03-03T05:48:22.955Z,100518.28
2019-03-03T05:49:28.007Z,100529.64
2019-03-03T05:50:32.949Z,100519.02
2019-03-03T05:51:38.295Z,100521.31
2019-03-03T05:52:43.521Z,100523.97
2019-03-03T05:53:48.525Z,100520.83
2019-03-03T05:54:53.491Z,100517.16
2019-03-03T05:55:58.814Z,100529.64
2019-03-03T05:57:03.917Z,100515.35
2019-03-03T05:58:09.187Z,100513.42
2019-03-03T05:59:14.622Z,100518.73
2019-03-03T06:00:19.977Z,100520.06
2019-03-03T06:01:24.941Z,100521.39
2019-03-03T06:02:30.057Z,100514.75
2019-03-03T06:03:35.107Z,100519.06
2019-03-03T06:04:40.118Z,100516.92
2019-03-03T06:05:47.421Z,100509.76
2019-03-03T06:06:52.681Z,100510.76
2019-03-03T06:07:57.688Z,100511.09
2019-03-03T06:09:02.725Z,100494.66
2019-03-03T06:10:07.865Z,100502.99
2019-03-03T06:11:12.947Z,100509.48
2019-03-03T06:12:17.974Z,100504.16
2019-03-03T06:13:23.283Z,100498.84
2019-03-03T06:14:28.274Z,100508.16
2019-03-03T06:15:33.436Z,100500.90
2019-03-03T06:16:38.474Z,100509.08
2019-03-03T06:17:43.846Z,100503.28
2019-03-03T06:18:49.350Z,100510.77
2019-03-03T06:19:54.355Z,100503.28
2019-03-03T06:20:59.741Z,100510.41
2019-03-03T06:22:05.071Z,100508.23
2019-03-03T06:23:10.063Z,100506.22
2019-03-03T06:24:15.062Z,100511.66
2019-03-03T06:25:19.962Z,100506.82
2019-03-03T06:26:25.151Z,100510.48
2019-03-03T06:27:30.151Z,100509.16
2019-03-03T06:28:35.134Z,100506.61
2019-03-03T06:29:40.175Z,100512.78
2019-03-03T06:30:45.284Z,100520.27
2019-03-03T06:31:50.469Z,100507.82
2019-03-03T06:32:55.524Z,100508.80
2019-03-03T06:34:00.624Z,100509.76
2019-03-03T06:35:07.034Z,100514.11
2019-03-03T06:36:12.081Z,100516.41
2019-03-03T06:37:17.409Z,100513.06
2019-03-03T06:38:22.448Z,100509.06
2019-03-03T06:39:27.427Z,100510.40
2019-03-03T06:40:32.495Z,100514.51
2019-03-03T06:41:37.697Z,100508.37
2019-03-03T06:42:42.931Z,100510.03
2019-03-03T06:43:48.022Z,100504.72
2019-03-03T06:44:52.959Z,100508.43
2019-03-03T06:45:58.274Z,100515.72
2019-03-03T06:47:03.208Z,100510.88
2019-03-03T06:48:08.462Z,100511.61
2019-03-03T06:49:13.518Z,100510.12
2019-03-03T06:50:18.587Z,100509.16
2019-03-03T06:51:23.645Z,100506.70
2019-03-03T06:52:28.610Z,100510.56
2019-03-03T06:53:33.951Z,100505.73
2019-03-03T06:54:39.073Z,100499.20
2019-03-03T06:55:44.406Z,100502.91
2019-03-03T06:56:49.610Z,100498.60
2019-03-03T06:57:54.672Z,100496.27
2019-03-03T06:58:59.694Z,100494.81
2019-03-03T07:00:06.184Z,100495.98
2019-03-03T07:01:11.121Z,100499.01
2019-03-03T07:02:16.672Z,100497.20
2019-03-03T07:03:21.760Z,100498.65
2019-03-03T07:04:26.681Z,100506.98
2019-03-03T07:05:31.633Z,100505.66
2019-03-03T07:06:36.723Z,100504.33
2019-03-03T07:07:41.971Z,100501.55
2019-03-03T07:08:47.039Z,100512.03
2019-03-03T07:09:51.996Z,100508.03
2019-03-03T07:10:57.023Z,100509.24
2019-03-03T07:12:02.181Z,100509.09
2019-03-03T07:13:07.431Z,100516.78
2019-03-03T07:14:12.481Z,100506.51
2019-03-03T07:15:17.599Z,100518.47
2019-03-03T07:16:22.607Z,100507.47
2019-03-03T07:17:27.554Z,100510.62
2019-03-03T07:18:32.544Z,100507.84
2019-03-03T07:19:37.729Z,100505.53
2019-03-03T07:20:42.975Z,100500.42
2019-03-03T07:21:48.168Z,100502.11
2019-03-03T07:22:53.416Z,100503.77
2019-03-03T07:23:58.363Z,100504.97
2019-03-03T07:25:03.417Z,100510.63
2019-03-03T07:26:08.500Z,100510.50
2019-03-03T07:27:13.563Z,100508.04
2019-03-03T07:28:18.545Z,100503.08
2019-03-03T07:29:23.655Z,100515.89
2019-03-03T07:30:28.682Z,100506.58
2019-03-03T07:31:34.124Z,100511.42
2019-03-03T07:32:45.439Z,100515.25
2019-03-03T07:33:53.909Z,100513.44
2019-03-03T07:34:58.928Z,100509.81
2019-03-03T07:36:04.038Z,100505.81
2019-03-03T07:37:09.084Z,100511.47
2019-03-03T07:38:14.116Z,100506.02
2019-03-03T07:39:19.690Z,100515.69
2019-03-03T07:40:24.828Z,100508.88
2019-03-03T07:41:30.149Z,100503.08
2019-03-03T07:42:35.346Z,100509.23
2019-03-03T07:43:40.776Z,100507.27
2019-03-03T07:44:45.833Z,100508.95
2019-03-03T07:45:50.943Z,100517.33
2019-03-03T07:46:56.016Z,100515.72
2019-03-03T07:48:01.399Z,100507.58
2019-03-03T07:49:06.393Z,100509.75
2019-03-03T07:50:11.433Z,100514.43
2019-03-03T07:51:16.497Z,100508.14
2019-03-03T07:52:21.458Z,100508.49
2019-03-03T07:53:26.505Z,100510.03
2019-03-03T07:54:31.468Z,100512.81
2019-03-03T07:55:36.628Z,100507.16
2019-03-03T07:56:41.609Z,100508.14
2019-03-03T07:57:47.078Z,100509.47
2019-03-03T07:58:52.117Z,100516.28
2019-03-03T07:59:57.203Z,100519.06
2019-03-03T08:01:02.277Z,100518.70
2019-03-03T08:02:07.327Z,100519.19
2019-03-03T08:03:12.626Z,100516.41
2019-03-03T08:04:17.689Z,100515.08
2019-03-03T08:05:22.727Z,100523.54
2019-03-03T08:06:28.304Z,100516.05
2019-03-03T08:07:33.564Z,100519.70
2019-03-03T08:08:38.543Z,100510.03
2019-03-03T08:09:43.596Z,100521.52
2019-03-03T08:10:48.600Z,100514.52
2019-03-03T08:11:53.824Z,100515.36
2019-03-03T08:13:08.754Z,100519.19
2019-03-03T08:14:05.552Z,100516.20
2019-03-03T08:15:10.666Z,100522.01
2019-03-03T08:16:15.671Z,100522.01
2019-03-03T08:17:20.959Z,100511.85
2019-03-03T08:18:26.038Z,100509.67
2019-03-03T08:19:31.300Z,100508.34
2019-03-03T08:20:36.632Z,100515.84
2019-03-03T08:21:41.734Z,100523.70
2019-03-03T08:22:46.926Z,100508.70
2019-03-03T08:23:51.923Z,100511.62
2019-03-03T08:24:56.912Z,100513.92
2019-03-03T08:26:01.887Z,100514.28
2019-03-03T08:27:06.875Z,100513.80
2019-03-03T08:28:11.826Z,100522.27
2019-03-03T08:29:16.836Z,100512.59
2019-03-03T08:30:22.007Z,100510.57
2019-03-03T08:31:27.243Z,100508.88
2019-03-03T08:32:32.395Z,100516.38
2019-03-03T08:33:37.427Z,100512.88
2019-03-03T08:34:42.708Z,100508.88
2019-03-03T08:35:48.095Z,100509.52
2019-03-03T08:36:53.186Z,100509.81
2019-03-03T08:37:58.154Z,100512.95
2019-03-03T08:39:03.794Z,100511.42
2019-03-03T08:40:09.337Z,100507.35
2019-03-03T08:41:14.590Z,100509.81
2019-03-03T08:42:37.057Z,100507.76
2019-03-03T08:43:49.680Z,100515.17
2019-03-03T08:45:13.631Z,100502.80
2019-03-03T08:46:29.564Z,100502.59
2019-03-03T08:47:38.558Z,100500.34
2019-03-03T08:48:51.653Z,100499.98
2019-03-03T08:50:03.687Z,100505.94
2019-03-03T08:51:27.255Z,100507.91
2019-03-03T08:52:41.572Z,100508.39
2019-03-03T08:54:08.675Z,100505.85
2019-03-03T08:55:38.712Z,100507.82
2019-03-03T08:57:02.657Z,100512.78
2019-03-03T08:58:20.973Z,100516.56
2019-03-03T08:59:49.978Z,100505.08
2019-03-03T09:01:29.158Z,100512.58
2019-03-03T09:02:56.069Z,100509.06
2019-03-03T09:04:20.318Z,100508.95
2019-03-03T09:05:50.768Z,100517.41
2019-03-03T09:07:20.891Z,100508.80
2019-03-03T09:08:43.393Z,100502.14
2019-03-03T09:09:58.115Z,100507.82
2019-03-03T09:11:22.078Z,100505.77
2019-03-03T09:12:32.267Z,100508.09
2019-03-03T09:13:46.865Z,100505.72
2019-03-03T09:15:09.565Z,100507.53
2019-03-03T09:16:24.772Z,100510.03
2019-03-03T09:17:48.153Z,100510.40
2019-03-03T09:19:03.093Z,100505.77
2019-03-03T09:20:28.102Z,100500.17
2019-03-03T09:21:54.797Z,100510.56
2019-03-03T09:23:17.289Z,100502.31
2019-03-03T09:24:47.355Z,100507.34
2019-03-03T09:26:14.948Z,100502.36
2019-03-03T09:27:57.301Z,100501.75
2019-03-03T09:29:18.108Z,100503.69
2019-03-03T09:30:42.199Z,100505.53
2019-03-03T09:32:04.749Z,100495.23
2019-03-03T09:33:27.453Z,100504.69
2019-03-03T09:34:50.295Z,100501.30
2019-03-03T09:36:09.124Z,100494.94
2019-03-03T09:37:25.941Z,100490.55
2019-03-03T09:38:45.087Z,100502.30
2019-03-03T09:40:09.858Z,100490.46
2019-03-03T09:41:25.631Z,100492.15
2019-03-03T09:43:01.712Z,100484.66
2019-03-03T09:44:14.822Z,100492.75
2019-03-03T09:45:34.647Z,100495.77
2019-03-03T09:46:57.064Z,100496.98
2019-03-03T09:48:21.005Z,100499.00
2019-03-03T09:49:32.331Z,100491.23
2019-03-03T09:50:55.054Z,100490.11
2019-03-03T09:52:15.361Z,100479.83
2019-03-03T09:53:37.824Z,100492.64
2019-03-03T09:55:01.708Z,100491.03
2019-03-03T09:56:13.287Z,100481.72
2019-03-03T09:57:46.338Z,100489.58
2019-03-03T09:59:08.989Z,100487.05
2019-03-03T10:00:31.921Z,100501.03
2019-03-03T10:01:55.975Z,100493.41
2019-03-03T10:03:07.253Z,100495.95
2019-03-03T10:04:29.947Z,100494.46
2019-03-03T10:06:03.219Z,100485.31
2019-03-03T10:07:33.220Z,100492.77
2019-03-03T10:09:02.960Z,100493.85
2019-03-03T10:10:23.124Z,100494.18
2019-03-03T10:11:49.451Z,100489.22
2019-03-03T10:13:06.490Z,100498.25
2019-03-03T10:14:19.771Z,100489.91
2019-03-03T10:15:44.590Z,100493.57
2019-03-03T10:17:09.857Z,100490.27
2019-03-03T10:18:23.910Z,100490.27
2019-03-03T10:19:46.575Z,100486.84
2019-03-03T10:21:07.037Z,100487.41
2019-03-03T10:22:39.974Z,100489.09
2019-03-03T10:24:04.367Z,100500.91
2019-03-03T10:25:20.506Z,100496.43
2019-03-03T10:26:47.671Z,100498.89
2019-03-03T10:28:17.416Z,100492.08
2019-03-03T10:29:36.237Z,100489.09
2019-03-03T10:31:00.246Z,100491.03
2019-03-03T10:32:14.347Z,100483.05
2019-03-03T10:33:37.274Z,100487.69
2019-03-03T10:34:55.290Z,100497.33
2019-03-03T10:36:19.309Z,100494.41
2019-03-03T10:37:42.065Z,100483.77
2019-03-03T10:38:53.517Z,100483.97
2019-03-03T10:40:23.162Z,100485.15
2019-03-03T10:41:45.811Z,100489.98
2019-03-03T10:43:04.531Z,100482.92
2019-03-03T10:44:28.832Z,100472.97
2019-03-03T10:45:51.843Z,100485.78
2019-03-03T10:47:13.182Z,100481.63
2019-03-03T10:48:38.788Z,100482.48
2019-03-03T10:50:09.182Z,100481.51
2019-03-03T10:51:32.704Z,100473.88
2019-03-03T10:52:56.837Z,100481.87
2019-03-03T10:54:19.408Z,100476.09
2019-03-03T10:55:49.230Z,100474.77
2019-03-03T10:57:04.865Z,100479.44
2019-03-03T10:58:44.167Z,100471.17
2019-03-03T11:00:03.328Z,100478.18
2019-03-03T11:01:29.962Z,100474.03
2019-03-03T11:02:45.304Z,100468.58
2019-03-03T11:04:09.312Z,100474.78
2019-03-03T11:05:32.321Z,100468.48
2019-03-03T11:06:45.656Z,100473.16
2019-03-03T11:08:00.757Z,100469.70
2019-03-03T11:09:19.222Z,100469.41
2019-03-03T11:10:34.078Z,100474.77
2019-03-03T11:11:58.268Z,100470.00
2019-03-03T11:13:20.936Z,100478.22
2019-03-03T11:14:50.727Z,100474.91
2019-03-03T11:16:11.560Z,100474.41
2019-03-03T11:17:38.814Z,100479.58
2019-03-03T11:18:56.289Z,100474.97
2019-03-03T11:20:10.877Z,100473.64
2019-03-03T11:21:43.951Z,100474.13
2019-03-03T11:23:11.449Z,100466.50
2019-03-03T11:24:25.495Z,100468.51
2019-03-03T11:25:58.240Z,100460.72
2019-03-03T11:27:25.197Z,100470.75
2019-03-03T11:28:51.778Z,100459.58
2019-03-03T11:30:14.531Z,100461.76
2019-03-03T11:31:37.336Z,100459.94
2019-03-03T11:32:52.214Z,100459.45
2019-03-03T11:34:16.445Z,100459.81
2019-03-03T11:35:49.679Z,100450.20
2019-03-03T11:37:22.794Z,100449.91
2019-03-03T11:38:47.264Z,100446.30
2019-03-03T11:39:59.218Z,100450.52
2019-03-03T11:41:14.002Z,100446.06
2019-03-03T11:42:33.344Z,100449.14
2019-03-03T11:43:49.129Z,100444.20
2019-03-03T11:45:08.883Z,100447.55
2019-03-03T11:46:36.365Z,100447.41
2019-03-03T11:48:04.748Z,100441.30
2019-03-03T11:49:27.626Z,100444.16
2019-03-03T11:50:50.029Z,100440.02
2019-03-03T11:52:12.545Z,100437.68
2019-03-03T11:53:29.573Z,100440.70
2019-03-03T11:54:47.220Z,100447.49
2019-03-03T11:56:11.329Z,100448.83
2019-03-03T11:57:21.852Z,100437.84
2019-03-03T11:58:47.700Z,100438.33
2019-03-03T12:00:05.621Z,100442.33
2019-03-03T12:01:41.723Z,100439.37
2019-03-03T12:02:56.763Z,100432.05
2019-03-03T12:04:21.748Z,100434.42
2019-03-03T12:05:57.915Z,100440.10
2019-03-03T12:07:13.568Z,100431.48
2019-03-03T12:08:40.399Z,100418.84
2019-03-03T12:09:52.080Z,100418.84
2019-03-03T12:11:14.995Z,100416.17
2019-03-03T12:12:36.402Z,100419.81
2019-03-03T12:14:09.479Z,100413.52
2019-03-03T12:15:32.334Z,100413.02
2019-03-03T12:16:48.666Z,100414.48
2019-03-03T12:18:09.235Z,100414.48
2019-03-03T12:19:36.551Z,100412.17
2019-03-03T12:21:05.849Z,100408.86
2019-03-03T12:22:31.911Z,100411.39
2019-03-03T12:23:58.901Z,100411.58
2019-03-03T12:25:25.032Z,100412.77
2019-03-03T12:27:01.123Z,100402.65
2019-03-03T12:28:30.781Z,100402.97
2019-03-03T12:29:48.946Z,100405.02
2019-03-03T12:31:01.797Z,100398.98
2019-03-03T12:32:22.689Z,100402.48
2019-03-03T12:33:55.838Z,100396.31
2019-03-03T12:35:19.858Z,100403.16
2019-03-03T12:36:37.447Z,100393.16
2019-03-03T12:37:57.379Z,100390.98
2019-03-03T12:39:18.277Z,100393.33
2019-03-03T12:40:57.336Z,100390.00
2019-03-03T12:42:30.280Z,100389.52
2019-03-03T12:43:42.773Z,100393.02
2019-03-03T12:45:09.573Z,100393.02
2019-03-03T12:46:39.804Z,100389.70
2019-03-03T12:47:52.727Z,100387.03
2019-03-03T12:49:10.038Z,100379.70
2019-03-03T12:50:52.342Z,100379.34
2019-03-03T12:52:25.355Z,100380.67
2019-03-03T12:53:43.358Z,100378.67
2019-03-03T12:55:10.156Z,100382.14
2019-03-03T12:56:28.788Z,100379.48
2019-03-03T12:57:45.221Z,100374.98
2019-03-03T12:59:21.291Z,100361.03
2019-03-03T13:00:57.330Z,100370.36
2019-03-03T13:02:20.176Z,100380.00
2019-03-03T13:03:41.666Z,100373.96
2019-03-03T13:05:08.667Z,100367.78
2019-03-03T13:06:24.340Z,100367.95
2019-03-03T13:07:49.630Z,100359.47
2019-03-03T13:09:18.861Z,100351.61
2019-03-03T13:10:40.873Z,100351.47
2019-03-03T13:12:16.922Z,100358.63
2019-03-03T13:13:39.111Z,100359.61
2019-03-03T13:15:03.492Z,100344.95
2019-03-03T13:16:33.598Z,100349.79
2019-03-03T13:17:48.193Z,100354.33
2019-03-03T13:18:59.683Z,100351.66
2019-03-03T13:20:29.150Z,100349.34
2019-03-03T13:21:56.325Z,100338.03
2019-03-03T13:23:19.130Z,100337.19
2019-03-03T13:24:41.532Z,100334.69
2019-03-03T13:26:17.418Z,100345.00
2019-03-03T13:27:38.042Z,100335.67
2019-03-03T13:29:11.016Z,100337.67
2019-03-03T13:30:38.316Z,100342.16
2019-03-03T13:31:50.083Z,100342.69
2019-03-03T13:33:17.004Z,100338.34
2019-03-03T13:34:50.146Z,100335.31
2019-03-03T13:36:06.907Z,100337.98
2019-03-03T13:37:40.900Z,100332.30
2019-03-03T13:39:07.902Z,100335.63
2019-03-03T13:40:46.743Z,100338.28
2019-03-03T13:42:00.511Z,100324.29
2019-03-03T13:43:05.659Z,100332.91
2019-03-03T13:44:10.801Z,100332.59
2019-03-03T13:45:16.362Z,100324.24
2019-03-03T13:46:21.478Z,100328.73
2019-03-03T13:47:26.924Z,100334.90
2019-03-03T13:48:32.139Z,100329.22
2019-03-03T13:49:37.292Z,100327.05
2019-03-03T13:50:42.474Z,100327.05
2019-03-03T13:51:47.397Z,100326.23
2019-03-03T13:52:52.504Z,100321.39
2019-03-03T13:53:58.166Z,100328.90
2019-03-03T13:55:03.238Z,100326.23
2019-03-03T13:56:08.735Z,100315.22
2019-03-03T13:57:13.818Z,100329.22
2019-03-03T13:58:18.904Z,100313.94
2019-03-03T13:59:24.024Z,100322.25
2019-03-03T14:00:29.315Z,100322.47
2019-03-03T14:01:34.546Z,100310.47
2019-03-03T14:02:39.902Z,100320.12
2019-03-03T14:03:44.882Z,100313.95
2019-03-03T14:04:50.058Z,100312.62
2019-03-03T14:05:55.089Z,100312.48
2019-03-03T14:07:00.302Z,100304.63